Terminal Aerodrome Forecast
Issued by NWS Cleveland, OH

Home | Current Version | Previous Version | Graphics & Text | Print | Product List | Glossary On
Versions: 1 2 3 4 5 6 7 8 9 10 11 12 13
343
FTUS41 KCLE 211132
TAFCAK
TAF
KCAK 211132Z 2112/2212 27012KT P6SM VCSH SCT015 OVC025
     FM211300 27012KT P6SM SCT025 BKN040
     FM211600 27014G22KT P6SM SCT045
     FM220200 28012KT P6SM VCSH BKN025 OVC040=

USA.gov is the U.S. government's official web portal to all federal, state and local government web resources and services.